sensor_id;sensor_type;location;lat;lon;timestamp;P1;durP1;ratioP1;P2;durP2;ratioP2
13419;SDS011;6781;58.440;15.470;2022-08-01T00:01:52;1.85;;;1.20;;
13419;SDS011;6781;58.440;15.470;2022-08-01T00:04:19;1.65;;;1.05;;
13419;SDS011;6781;58.440;15.470;2022-08-01T00:06:47;1.50;;;0.98;;
13419;SDS011;6781;58.440;15.470;2022-08-01T00:09:14;1.15;;;1.05;;
13419;SDS011;6781;58.440;15.470;2022-08-01T00:11:41;1.35;;;0.80;;
13419;SDS011;6781;58.440;15.470;2022-08-01T00:14:08;2.58;;;1.10;;
13419;SDS011;6781;58.440;15.470;2022-08-01T00:16:37;0.77;;;0.60;;
13419;SDS011;6781;58.440;15.470;2022-08-01T00:19:04;1.05;;;0.95;;
13419;SDS011;6781;58.440;15.470;2022-08-01T00:21:33;1.27;;;1.00;;
13419;SDS011;6781;58.440;15.470;2022-08-01T00:24:01;3.40;;;1.20;;
13419;SDS011;6781;58.440;15.470;2022-08-01T00:26:30;1.52;;;1.05;;
13419;SDS011;6781;58.440;15.470;2022-08-01T00:28:57;0.98;;;0.95;;
13419;SDS011;6781;58.440;15.470;2022-08-01T00:31:24;0.98;;;0.98;;
13419;SDS011;6781;58.440;15.470;2022-08-01T00:33:50;1.45;;;1.10;;
13419;SDS011;6781;58.440;15.470;2022-08-01T00:36:18;2.28;;;1.00;;
13419;SDS011;6781;58.440;15.470;2022-08-01T00:38:45;1.25;;;1.15;;
13419;SDS011;6781;58.440;15.470;2022-08-01T00:41:13;0.80;;;0.80;;
13419;SDS011;6781;58.440;15.470;2022-08-01T00:43:40;1.50;;;1.20;;
13419;SDS011;6781;58.440;15.470;2022-08-01T00:46:07;1.15;;;0.90;;
13419;SDS011;6781;58.440;15.470;2022-08-01T00:48:33;1.20;;;1.10;;
13419;SDS011;6781;58.440;15.470;2022-08-01T00:51:00;0.80;;;0.80;;
13419;SDS011;6781;58.440;15.470;2022-08-01T00:53:28;2.50;;;1.02;;
13419;SDS011;6781;58.440;15.470;2022-08-01T00:55:55;1.13;;;1.08;;
13419;SDS011;6781;58.440;15.470;2022-08-01T00:58:26;1.30;;;1.20;;
13419;SDS011;6781;58.440;15.470;2022-08-01T01:00:56;0.73;;;0.73;;
13419;SDS011;6781;58.440;15.470;2022-08-01T01:03:25;0.77;;;0.77;;
13419;SDS011;6781;58.440;15.470;2022-08-01T01:05:54;0.90;;;0.90;;
13419;SDS011;6781;58.440;15.470;2022-08-01T01:08:32;1.52;;;1.20;;
13419;SDS011;6781;58.440;15.470;2022-08-01T01:11:07;0.90;;;0.90;;
13419;SDS011;6781;58.440;15.470;2022-08-01T01:13:43;1.17;;;0.95;;
13419;SDS011;6781;58.440;15.470;2022-08-01T01:16:15;0.77;;;0.77;;
13419;SDS011;6781;58.440;15.470;2022-08-01T01:18:45;1.10;;;0.98;;
13419;SDS011;6781;58.440;15.470;2022-08-01T01:23:57;0.93;;;0.70;;
13419;SDS011;6781;58.440;15.470;2022-08-01T01:26:40;1.02;;;1.02;;
13419;SDS011;6781;58.440;15.470;2022-08-01T01:29:20;1.10;;;1.00;;
13419;SDS011;6781;58.440;15.470;2022-08-01T01:31:51;1.48;;;1.40;;
13419;SDS011;6781;58.440;15.470;2022-08-01T01:34:25;1.85;;;1.05;;
13419;SDS011;6781;58.440;15.470;2022-08-01T01:36:55;1.00;;;0.93;;
13419;SDS011;6781;58.440;15.470;2022-08-01T01:39:25;0.90;;;0.90;;
13419;SDS011;6781;58.440;15.470;2022-08-01T01:41:55;1.05;;;1.00;;
13419;SDS011;6781;58.440;15.470;2022-08-01T01:44:26;0.95;;;0.95;;
13419;SDS011;6781;58.440;15.470;2022-08-01T01:46:54;1.00;;;1.00;;
13419;SDS011;6781;58.440;15.470;2022-08-01T01:49:23;1.98;;;1.00;;
13419;SDS011;6781;58.440;15.470;2022-08-01T01:51:53;0.98;;;0.98;;
13419;SDS011;6781;58.440;15.470;2022-08-01T01:54:22;2.08;;;1.05;;
13419;SDS011;6781;58.440;15.470;2022-08-01T01:56:52;0.90;;;0.90;;
13419;SDS011;6781;58.440;15.470;2022-08-01T01:59:24;0.90;;;0.90;;
13419;SDS011;6781;58.440;15.470;2022-08-01T02:01:55;1.50;;;0.90;;
13419;SDS011;6781;58.440;15.470;2022-08-01T02:04:24;1.20;;;1.08;;
13419;SDS011;6781;58.440;15.470;2022-08-01T02:09:29;1.27;;;1.17;;
13419;SDS011;6781;58.440;15.470;2022-08-01T02:11:58;0.88;;;0.88;;
13419;SDS011;6781;58.440;15.470;2022-08-01T02:14:28;1.48;;;1.10;;
13419;SDS011;6781;58.440;15.470;2022-08-01T02:16:57;1.85;;;0.98;;
13419;SDS011;6781;58.440;15.470;2022-08-01T02:19:25;1.85;;;1.00;;
13419;SDS011;6781;58.440;15.470;2022-08-01T02:21:55;1.02;;;0.90;;
13419;SDS011;6781;58.440;15.470;2022-08-01T02:24:24;0.80;;;0.80;;
13419;SDS011;6781;58.440;15.470;2022-08-01T02:26:59;1.00;;;1.00;;
13419;SDS011;6781;58.440;15.470;2022-08-01T02:29:32;1.23;;;1.10;;
13419;SDS011;6781;58.440;15.470;2022-08-01T02:32:04;0.82;;;0.82;;
13419;SDS011;6781;58.440;15.470;2022-08-01T02:34:32;0.90;;;0.90;;
13419;SDS011;6781;58.440;15.470;2022-08-01T02:37:01;1.52;;;0.85;;
13419;SDS011;6781;58.440;15.470;2022-08-01T02:39:30;0.85;;;0.85;;
13419;SDS011;6781;58.440;15.470;2022-08-01T02:41:59;1.88;;;1.00;;
13419;SDS011;6781;58.440;15.470;2022-08-01T02:44:31;0.90;;;0.90;;
13419;SDS011;6781;58.440;15.470;2022-08-01T02:47:03;1.25;;;1.15;;
13419;SDS011;6781;58.440;15.470;2022-08-01T02:49:31;0.98;;;0.98;;
13419;SDS011;6781;58.440;15.470;2022-08-01T02:52:00;1.20;;;1.10;;
13419;SDS011;6781;58.440;15.470;2022-08-01T02:54:31;1.40;;;1.23;;
13419;SDS011;6781;58.440;15.470;2022-08-01T02:57:00;0.90;;;0.90;;
13419;SDS011;6781;58.440;15.470;2022-08-01T02:59:28;1.00;;;1.00;;
13419;SDS011;6781;58.440;15.470;2022-08-01T03:01:59;1.20;;;1.10;;
13419;SDS011;6781;58.440;15.470;2022-08-01T03:04:29;2.45;;;1.13;;
13419;SDS011;6781;58.440;15.470;2022-08-01T03:06:57;1.10;;;1.00;;
13419;SDS011;6781;58.440;15.470;2022-08-01T03:09:26;0.98;;;0.98;;
13419;SDS011;6781;58.440;15.470;2022-08-01T03:11:55;2.67;;;0.95;;
13419;SDS011;6781;58.440;15.470;2022-08-01T03:14:27;1.42;;;0.93;;
13419;SDS011;6781;58.440;15.470;2022-08-01T03:16:55;0.93;;;0.93;;
13419;SDS011;6781;58.440;15.470;2022-08-01T03:19:25;1.63;;;1.00;;
13419;SDS011;6781;58.440;15.470;2022-08-01T03:21:54;0.90;;;0.90;;
13419;SDS011;6781;58.440;15.470;2022-08-01T03:24:23;1.50;;;0.80;;
13419;SDS011;6781;58.440;15.470;2022-08-01T03:26:52;1.23;;;0.90;;
13419;SDS011;6781;58.440;15.470;2022-08-01T03:29:21;3.58;;;1.13;;
13419;SDS011;6781;58.440;15.470;2022-08-01T03:31:51;0.80;;;0.80;;
13419;SDS011;6781;58.440;15.470;2022-08-01T03:34:19;1.05;;;1.05;;
13419;SDS011;6781;58.440;15.470;2022-08-01T03:36:49;1.00;;;1.00;;
13419;SDS011;6781;58.440;15.470;2022-08-01T03:39:19;1.30;;;1.20;;
13419;SDS011;6781;58.440;15.470;2022-08-01T03:41:50;0.95;;;0.90;;
13419;SDS011;6781;58.440;15.470;2022-08-01T03:44:24;0.88;;;0.88;;
13419;SDS011;6781;58.440;15.470;2022-08-01T03:46:55;1.38;;;0.88;;
13419;SDS011;6781;58.440;15.470;2022-08-01T03:49:26;1.20;;;1.10;;
13419;SDS011;6781;58.440;15.470;2022-08-01T03:52:00;0.90;;;0.90;;
13419;SDS011;6781;58.440;15.470;2022-08-01T03:54:30;0.90;;;0.90;;
13419;SDS011;6781;58.440;15.470;2022-08-01T03:56:59;0.90;;;0.90;;
13419;SDS011;6781;58.440;15.470;2022-08-01T03:59:28;1.23;;;1.10;;
13419;SDS011;6781;58.440;15.470;2022-08-01T04:01:56;1.00;;;1.00;;
13419;SDS011;6781;58.440;15.470;2022-08-01T04:04:24;1.10;;;1.00;;
13419;SDS011;6781;58.440;15.470;2022-08-01T04:06:52;0.80;;;0.80;;
13419;SDS011;6781;58.440;15.470;2022-08-01T04:09:21;0.90;;;0.90;;
13419;SDS011;6781;58.440;15.470;2022-08-01T04:11:48;1.00;;;1.00;;
13419;SDS011;6781;58.440;15.470;2022-08-01T04:14:15;1.30;;;1.17;;
13419;SDS011;6781;58.440;15.470;2022-08-01T04:16:42;1.13;;;1.10;;
13419;SDS011;6781;58.440;15.470;2022-08-01T04:19:09;1.00;;;1.00;;
13419;SDS011;6781;58.440;15.470;2022-08-01T04:21:36;1.35;;;1.00;;
13419;SDS011;6781;58.440;15.470;2022-08-01T04:24:04;1.00;;;1.00;;
13419;SDS011;6781;58.440;15.470;2022-08-01T04:26:36;1.00;;;1.00;;
13419;SDS011;6781;58.440;15.470;2022-08-01T04:29:05;1.08;;;0.98;;
13419;SDS011;6781;58.440;15.470;2022-08-01T04:31:34;1.00;;;1.00;;
13419;SDS011;6781;58.440;15.470;2022-08-01T04:34:04;2.03;;;0.90;;
13419;SDS011;6781;58.440;15.470;2022-08-01T04:36:32;0.90;;;0.90;;
13419;SDS011;6781;58.440;15.470;2022-08-01T04:39:02;1.77;;;0.90;;
13419;SDS011;6781;58.440;15.470;2022-08-01T04:41:31;0.90;;;0.90;;
13419;SDS011;6781;58.440;15.470;2022-08-01T04:44:00;0.98;;;0.98;;
13419;SDS011;6781;58.440;15.470;2022-08-01T04:46:27;0.90;;;0.90;;
13419;SDS011;6781;58.440;15.470;2022-08-01T04:48:55;2.60;;;1.10;;
13419;SDS011;6781;58.440;15.470;2022-08-01T04:51:22;1.30;;;1.20;;
13419;SDS011;6781;58.440;15.470;2022-08-01T04:53:49;1.10;;;1.00;;
13419;SDS011;6781;58.440;15.470;2022-08-01T04:56:17;1.48;;;0.93;;
13419;SDS011;6781;58.440;15.470;2022-08-01T04:58:45;0.90;;;0.90;;
13419;SDS011;6781;58.440;15.470;2022-08-01T05:01:14;1.33;;;1.10;;
13419;SDS011;6781;58.440;15.470;2022-08-01T05:03:41;1.20;;;1.20;;
13419;SDS011;6781;58.440;15.470;2022-08-01T05:06:09;1.30;;;1.10;;
13419;SDS011;6781;58.440;15.470;2022-08-01T05:08:35;0.90;;;0.90;;
13419;SDS011;6781;58.440;15.470;2022-08-01T05:11:02;0.70;;;0.70;;
13419;SDS011;6781;58.440;15.470;2022-08-01T05:13:29;1.67;;;1.10;;
13419;SDS011;6781;58.440;15.470;2022-08-01T05:15:56;1.02;;;1.02;;
13419;SDS011;6781;58.440;15.470;2022-08-01T05:18:24;1.10;;;1.10;;
13419;SDS011;6781;58.440;15.470;2022-08-01T05:20:51;1.40;;;1.30;;
13419;SDS011;6781;58.440;15.470;2022-08-01T05:23:18;1.55;;;1.20;;
13419;SDS011;6781;58.440;15.470;2022-08-01T05:25:45;1.35;;;1.17;;
13419;SDS011;6781;58.440;15.470;2022-08-01T05:28:13;1.20;;;1.10;;
13419;SDS011;6781;58.440;15.470;2022-08-01T05:30:40;0.98;;;0.98;;
13419;SDS011;6781;58.440;15.470;2022-08-01T05:33:07;1.38;;;0.93;;
13419;SDS011;6781;58.440;15.470;2022-08-01T05:35:35;1.17;;;1.02;;
13419;SDS011;6781;58.440;15.470;2022-08-01T05:38:02;1.13;;;1.13;;
13419;SDS011;6781;58.440;15.470;2022-08-01T05:40:29;1.17;;;1.10;;
13419;SDS011;6781;58.440;15.470;2022-08-01T05:42:56;1.05;;;1.05;;
13419;SDS011;6781;58.440;15.470;2022-08-01T05:45:22;1.45;;;1.35;;
13419;SDS011;6781;58.440;15.470;2022-08-01T05:47:49;1.00;;;1.00;;
13419;SDS011;6781;58.440;15.470;2022-08-01T05:50:16;1.48;;;1.08;;
13419;SDS011;6781;58.440;15.470;2022-08-01T05:52:44;1.05;;;1.05;;
13419;SDS011;6781;58.440;15.470;2022-08-01T05:55:11;1.17;;;1.10;;
13419;SDS011;6781;58.440;15.470;2022-08-01T05:57:38;1.92;;;1.20;;
13419;SDS011;6781;58.440;15.470;2022-08-01T06:00:06;2.10;;;1.50;;
13419;SDS011;6781;58.440;15.470;2022-08-01T06:02:33;1.20;;;1.10;;
13419;SDS011;6781;58.440;15.470;2022-08-01T06:05:00;1.23;;;1.05;;
13419;SDS011;6781;58.440;15.470;2022-08-01T06:07:27;0.80;;;0.80;;
13419;SDS011;6781;58.440;15.470;2022-08-01T06:09:55;0.90;;;0.90;;
13419;SDS011;6781;58.440;15.470;2022-08-01T06:12:22;1.10;;;1.10;;
13419;SDS011;6781;58.440;15.470;2022-08-01T06:14:51;1.10;;;1.05;;
13419;SDS011;6781;58.440;15.470;2022-08-01T06:17:18;1.77;;;1.10;;
13419;SDS011;6781;58.440;15.470;2022-08-01T06:19:45;1.25;;;1.20;;
13419;SDS011;6781;58.440;15.470;2022-08-01T06:22:11;1.25;;;1.10;;
13419;SDS011;6781;58.440;15.470;2022-08-01T06:24:38;1.23;;;1.10;;
13419;SDS011;6781;58.440;15.470;2022-08-01T06:27:06;2.10;;;1.13;;
13419;SDS011;6781;58.440;15.470;2022-08-01T06:29:33;1.92;;;1.40;;
13419;SDS011;6781;58.440;15.470;2022-08-01T06:32:00;1.83;;;1.00;;
13419;SDS011;6781;58.440;15.470;2022-08-01T06:34:27;4.97;;;1.13;;
13419;SDS011;6781;58.440;15.470;2022-08-01T06:36:55;1.80;;;1.20;;
13419;SDS011;6781;58.440;15.470;2022-08-01T06:39:23;0.90;;;0.90;;
13419;SDS011;6781;58.440;15.470;2022-08-01T06:41:50;2.10;;;0.90;;
13419;SDS011;6781;58.440;15.470;2022-08-01T06:44:19;1.10;;;1.10;;
13419;SDS011;6781;58.440;15.470;2022-08-01T06:46:46;1.27;;;1.17;;
13419;SDS011;6781;58.440;15.470;2022-08-01T06:49:13;1.83;;;1.10;;
13419;SDS011;6781;58.440;15.470;2022-08-01T06:51:54;2.20;;;1.10;;
13419;SDS011;6781;58.440;15.470;2022-08-01T06:54:21;2.83;;;1.00;;
13419;SDS011;6781;58.440;15.470;2022-08-01T06:56:48;1.67;;;1.10;;
13419;SDS011;6781;58.440;15.470;2022-08-01T06:59:15;1.27;;;1.10;;
13419;SDS011;6781;58.440;15.470;2022-08-01T07:01:44;1.05;;;1.02;;
13419;SDS011;6781;58.440;15.470;2022-08-01T07:04:25;0.93;;;0.93;;
13419;SDS011;6781;58.440;15.470;2022-08-01T07:06:52;1.20;;;1.10;;
13419;SDS011;6781;58.440;15.470;2022-08-01T07:09:20;1.83;;;0.90;;
13419;SDS011;6781;58.440;15.470;2022-08-01T07:11:47;1.30;;;1.20;;
13419;SDS011;6781;58.440;15.470;2022-08-01T07:14:15;1.92;;;1.40;;
13419;SDS011;6781;58.440;15.470;2022-08-01T07:16:43;3.08;;;1.30;;
13419;SDS011;6781;58.440;15.470;2022-08-01T07:19:10;1.02;;;1.00;;
13419;SDS011;6781;58.440;15.470;2022-08-01T07:21:37;1.20;;;1.02;;
13419;SDS011;6781;58.440;15.470;2022-08-01T07:24:04;1.00;;;1.00;;
13419;SDS011;6781;58.440;15.470;2022-08-01T07:26:32;1.30;;;1.23;;
13419;SDS011;6781;58.440;15.470;2022-08-01T07:28:59;2.72;;;1.10;;
13419;SDS011;6781;58.440;15.470;2022-08-01T07:31:25;1.40;;;1.20;;
13419;SDS011;6781;58.440;15.470;2022-08-01T07:33:54;4.50;;;1.60;;
13419;SDS011;6781;58.440;15.470;2022-08-01T07:36:21;2.63;;;1.27;;
13419;SDS011;6781;58.440;15.470;2022-08-01T07:38:48;1.10;;;1.10;;
13419;SDS011;6781;58.440;15.470;2022-08-01T07:41:14;1.98;;;1.02;;
13419;SDS011;6781;58.440;15.470;2022-08-01T07:43:41;1.30;;;1.20;;
13419;SDS011;6781;58.440;15.470;2022-08-01T07:46:08;1.20;;;1.20;;
13419;SDS011;6781;58.440;15.470;2022-08-01T07:48:35;1.75;;;1.65;;
13419;SDS011;6781;58.440;15.470;2022-08-01T07:51:04;2.05;;;1.50;;
13419;SDS011;6781;58.440;15.470;2022-08-01T07:53:30;3.05;;;1.45;;
13419;SDS011;6781;58.440;15.470;2022-08-01T07:55:57;1.15;;;1.08;;
13419;SDS011;6781;58.440;15.470;2022-08-01T07:58:25;2.65;;;1.30;;
13419;SDS011;6781;58.440;15.470;2022-08-01T08:00:52;1.20;;;1.20;;
13419;SDS011;6781;58.440;15.470;2022-08-01T08:03:19;1.63;;;1.40;;
13419;SDS011;6781;58.440;15.470;2022-08-01T08:05:46;1.30;;;1.15;;
13419;SDS011;6781;58.440;15.470;2022-08-01T08:08:14;0.77;;;0.77;;
13419;SDS011;6781;58.440;15.470;2022-08-01T08:10:43;1.25;;;0.88;;
13419;SDS011;6781;58.440;15.470;2022-08-01T08:13:10;1.92;;;1.13;;
13419;SDS011;6781;58.440;15.470;2022-08-01T08:15:36;1.00;;;1.00;;
13419;SDS011;6781;58.440;15.470;2022-08-01T08:18:03;2.15;;;1.10;;
13419;SDS011;6781;58.440;15.470;2022-08-01T08:20:30;1.20;;;1.10;;
13419;SDS011;6781;58.440;15.470;2022-08-01T08:22:57;3.00;;;1.10;;
13419;SDS011;6781;58.440;15.470;2022-08-01T08:25:26;3.35;;;1.00;;
13419;SDS011;6781;58.440;15.470;2022-08-01T08:27:53;1.42;;;1.10;;
13419;SDS011;6781;58.440;15.470;2022-08-01T08:30:20;1.45;;;1.00;;
13419;SDS011;6781;58.440;15.470;2022-08-01T08:32:47;2.28;;;1.40;;
13419;SDS011;6781;58.440;15.470;2022-08-01T08:35:14;1.38;;;0.90;;
13419;SDS011;6781;58.440;15.470;2022-08-01T08:37:41;1.77;;;1.20;;
13419;SDS011;6781;58.440;15.470;2022-08-01T08:40:08;1.05;;;0.90;;
13419;SDS011;6781;58.440;15.470;2022-08-01T08:42:38;1.20;;;1.10;;
13419;SDS011;6781;58.440;15.470;2022-08-01T08:45:07;3.78;;;1.35;;
13419;SDS011;6781;58.440;15.470;2022-08-01T08:47:36;1.25;;;1.00;;
13419;SDS011;6781;58.440;15.470;2022-08-01T08:50:04;1.20;;;1.10;;
13419;SDS011;6781;58.440;15.470;2022-08-01T08:52:33;0.93;;;0.93;;
13419;SDS011;6781;58.440;15.470;2022-08-01T08:55:04;2.53;;;1.02;;
13419;SDS011;6781;58.440;15.470;2022-08-01T08:57:32;1.45;;;0.82;;
13419;SDS011;6781;58.440;15.470;2022-08-01T09:00:01;2.42;;;0.90;;
13419;SDS011;6781;58.440;15.470;2022-08-01T09:02:28;3.33;;;1.00;;
13419;SDS011;6781;58.440;15.470;2022-08-01T09:04:55;1.15;;;0.90;;
13419;SDS011;6781;58.440;15.470;2022-08-01T09:07:22;0.90;;;0.90;;
13419;SDS011;6781;58.440;15.470;2022-08-01T09:09:51;1.10;;;0.90;;
13419;SDS011;6781;58.440;15.470;2022-08-01T09:12:18;1.25;;;1.00;;
13419;SDS011;6781;58.440;15.470;2022-08-01T09:14:46;1.33;;;0.95;;
13419;SDS011;6781;58.440;15.470;2022-08-01T09:17:16;2.45;;;0.90;;
13419;SDS011;6781;58.440;15.470;2022-08-01T09:19:43;1.00;;;0.90;;
13419;SDS011;6781;58.440;15.470;2022-08-01T09:22:13;1.48;;;0.70;;
13419;SDS011;6781;58.440;15.470;2022-08-01T09:24:52;0.80;;;0.80;;
13419;SDS011;6781;58.440;15.470;2022-08-01T09:27:23;1.15;;;1.00;;
13419;SDS011;6781;58.440;15.470;2022-08-01T09:29:51;2.22;;;1.02;;
13419;SDS011;6781;58.440;15.470;2022-08-01T09:32:20;0.90;;;0.90;;
13419;SDS011;6781;58.440;15.470;2022-08-01T09:34:47;1.02;;;0.80;;
13419;SDS011;6781;58.440;15.470;2022-08-01T09:37:14;0.82;;;0.82;;
13419;SDS011;6781;58.440;15.470;2022-08-01T09:39:43;1.02;;;0.70;;
13419;SDS011;6781;58.440;15.470;2022-08-01T09:42:18;0.98;;;0.95;;
13419;SDS011;6781;58.440;15.470;2022-08-01T09:44:46;1.58;;;0.73;;
13419;SDS011;6781;58.440;15.470;2022-08-01T09:47:13;1.65;;;0.90;;
13419;SDS011;6781;58.440;15.470;2022-08-01T09:49:43;1.08;;;0.98;;
13419;SDS011;6781;58.440;15.470;2022-08-01T09:52:11;2.30;;;1.00;;
13419;SDS011;6781;58.440;15.470;2022-08-01T09:54:40;1.27;;;1.00;;
13419;SDS011;6781;58.440;15.470;2022-08-01T09:57:17;0.80;;;0.80;;
13419;SDS011;6781;58.440;15.470;2022-08-01T09:59:46;1.30;;;1.17;;
13419;SDS011;6781;58.440;15.470;2022-08-01T10:02:26;3.03;;;1.88;;
13419;SDS011;6781;58.440;15.470;2022-08-01T10:04:55;1.38;;;1.27;;
13419;SDS011;6781;58.440;15.470;2022-08-01T10:07:22;0.93;;;0.93;;
13419;SDS011;6781;58.440;15.470;2022-08-01T10:09:49;1.23;;;0.90;;
13419;SDS011;6781;58.440;15.470;2022-08-01T10:12:17;1.05;;;0.95;;
13419;SDS011;6781;58.440;15.470;2022-08-01T10:14:46;1.42;;;1.20;;
13419;SDS011;6781;58.440;15.470;2022-08-01T10:17:18;1.15;;;1.10;;
13419;SDS011;6781;58.440;15.470;2022-08-01T10:19:46;1.20;;;1.10;;
13419;SDS011;6781;58.440;15.470;2022-08-01T10:22:17;1.95;;;1.00;;
13419;SDS011;6781;58.440;15.470;2022-08-01T10:24:46;1.38;;;1.30;;
13419;SDS011;6781;58.440;15.470;2022-08-01T10:27:15;3.10;;;1.27;;
13419;SDS011;6781;58.440;15.470;2022-08-01T10:29:46;1.27;;;1.17;;
13419;SDS011;6781;58.440;15.470;2022-08-01T10:32:15;2.22;;;1.20;;
13419;SDS011;6781;58.440;15.470;2022-08-01T10:34:43;2.42;;;1.30;;
13419;SDS011;6781;58.440;15.470;2022-08-01T10:37:11;1.60;;;1.50;;
13419;SDS011;6781;58.440;15.470;2022-08-01T10:39:41;1.33;;;1.23;;
13419;SDS011;6781;58.440;15.470;2022-08-01T10:42:10;1.95;;;1.40;;
13419;SDS011;6781;58.440;15.470;2022-08-01T10:44:38;1.70;;;1.60;;
13419;SDS011;6781;58.440;15.470;2022-08-01T10:47:07;2.35;;;1.40;;
13419;SDS011;6781;58.440;15.470;2022-08-01T10:49:39;1.38;;;1.35;;
13419;SDS011;6781;58.440;15.470;2022-08-01T10:52:13;2.17;;;1.27;;
13419;SDS011;6781;58.440;15.470;2022-08-01T10:54:42;4.13;;;1.30;;
13419;SDS011;6781;58.440;15.470;2022-08-01T10:57:10;2.63;;;2.13;;
13419;SDS011;6781;58.440;15.470;2022-08-01T10:59:49;2.10;;;1.92;;
13419;SDS011;6781;58.440;15.470;2022-08-01T11:02:27;1.92;;;1.83;;
13419;SDS011;6781;58.440;15.470;2022-08-01T11:04:55;3.80;;;2.30;;
13419;SDS011;6781;58.440;15.470;2022-08-01T11:07:35;3.13;;;1.92;;
13419;SDS011;6781;58.440;15.470;2022-08-01T11:10:19;3.70;;;2.47;;
13419;SDS011;6781;58.440;15.470;2022-08-01T11:12:50;2.78;;;2.30;;
13419;SDS011;6781;58.440;15.470;2022-08-01T11:15:22;4.00;;;2.45;;
13419;SDS011;6781;58.440;15.470;2022-08-01T11:17:53;2.45;;;2.25;;
13419;SDS011;6781;58.440;15.470;2022-08-01T11:20:54;3.33;;;2.75;;
13419;SDS011;6781;58.440;15.470;2022-08-01T11:23:54;3.17;;;2.75;;
13419;SDS011;6781;58.440;15.470;2022-08-01T11:29:24;5.97;;;3.47;;
13419;SDS011;6781;58.440;15.470;2022-08-01T11:31:54;3.58;;;3.05;;
13419;SDS011;6781;58.440;15.470;2022-08-01T11:34:53;5.50;;;3.33;;
13419;SDS011;6781;58.440;15.470;2022-08-01T11:37:24;6.22;;;3.40;;
13419;SDS011;6781;58.440;15.470;2022-08-01T11:42:40;7.28;;;4.25;;
13419;SDS011;6781;58.440;15.470;2022-08-01T11:45:09;5.03;;;4.15;;
13419;SDS011;6781;58.440;15.470;2022-08-01T11:47:42;4.35;;;3.00;;
13419;SDS011;6781;58.440;15.470;2022-08-01T11:50:30;5.68;;;3.25;;
13419;SDS011;6781;58.440;15.470;2022-08-01T11:52:59;4.85;;;3.58;;
13419;SDS011;6781;58.440;15.470;2022-08-01T11:55:27;8.63;;;4.05;;
13419;SDS011;6781;58.440;15.470;2022-08-01T11:57:59;5.13;;;4.20;;
13419;SDS011;6781;58.440;15.470;2022-08-01T12:00:29;6.10;;;3.90;;
13419;SDS011;6781;58.440;15.470;2022-08-01T12:02:57;6.85;;;3.60;;
13419;SDS011;6781;58.440;15.470;2022-08-01T12:05:25;5.68;;;4.20;;
13419;SDS011;6781;58.440;15.470;2022-08-01T12:07:54;7.55;;;4.63;;
13419;SDS011;6781;58.440;15.470;2022-08-01T12:10:24;6.80;;;4.30;;
13419;SDS011;6781;58.440;15.470;2022-08-01T12:12:53;6.88;;;5.03;;
13419;SDS011;6781;58.440;15.470;2022-08-01T12:15:37;9.35;;;4.25;;
13419;SDS011;6781;58.440;15.470;2022-08-01T12:18:05;7.32;;;4.55;;
13419;SDS011;6781;58.440;15.470;2022-08-01T12:20:34;11.80;;;5.97;;
13419;SDS011;6781;58.440;15.470;2022-08-01T12:23:03;7.63;;;4.68;;
13419;SDS011;6781;58.440;15.470;2022-08-01T12:25:33;8.75;;;4.13;;
13419;SDS011;6781;58.440;15.470;2022-08-01T12:28:00;4.57;;;3.28;;
13419;SDS011;6781;58.440;15.470;2022-08-01T12:30:29;3.83;;;3.08;;
13419;SDS011;6781;58.440;15.470;2022-08-01T12:33:02;5.63;;;3.83;;
13419;SDS011;6781;58.440;15.470;2022-08-01T12:35:30;6.28;;;3.47;;
13419;SDS011;6781;58.440;15.470;2022-08-01T12:37:58;4.75;;;3.30;;
13419;SDS011;6781;58.440;15.470;2022-08-01T12:40:28;3.88;;;3.53;;
13419;SDS011;6781;58.440;15.470;2022-08-01T12:42:57;4.57;;;2.95;;
13419;SDS011;6781;58.440;15.470;2022-08-01T12:45:27;4.90;;;2.95;;
13419;SDS011;6781;58.440;15.470;2022-08-01T12:47:56;6.53;;;3.10;;
13419;SDS011;6781;58.440;15.470;2022-08-01T12:50:27;4.18;;;3.10;;
13419;SDS011;6781;58.440;15.470;2022-08-01T12:52:56;4.07;;;3.08;;
13419;SDS011;6781;58.440;15.470;2022-08-01T12:55:24;3.92;;;3.25;;
13419;SDS011;6781;58.440;15.470;2022-08-01T12:58:03;3.83;;;3.28;;
13419;SDS011;6781;58.440;15.470;2022-08-01T13:00:31;4.43;;;4.03;;
13419;SDS011;6781;58.440;15.470;2022-08-01T13:03:02;4.40;;;4.00;;
13419;SDS011;6781;58.440;15.470;2022-08-01T13:05:41;8.73;;;4.32;;
13419;SDS011;6781;58.440;15.470;2022-08-01T13:08:10;4.90;;;4.30;;
13419;SDS011;6781;58.440;15.470;2022-08-01T13:10:37;4.10;;;3.70;;
13419;SDS011;6781;58.440;15.470;2022-08-01T13:13:05;11.65;;;4.10;;
13419;SDS011;6781;58.440;15.470;2022-08-01T13:15:34;4.45;;;3.92;;
13419;SDS011;6781;58.440;15.470;2022-08-01T13:20:51;4.22;;;3.47;;
13419;SDS011;6781;58.440;15.470;2022-08-01T13:23:34;5.50;;;3.33;;
13419;SDS011;6781;58.440;15.470;2022-08-01T13:26:01;5.93;;;3.13;;
13419;SDS011;6781;58.440;15.470;2022-08-01T13:28:27;2.90;;;2.70;;
13419;SDS011;6781;58.440;15.470;2022-08-01T13:30:58;3.10;;;2.78;;
13419;SDS011;6781;58.440;15.470;2022-08-01T13:33:41;3.45;;;3.15;;
13419;SDS011;6781;58.440;15.470;2022-08-01T13:36:10;4.85;;;3.03;;
13419;SDS011;6781;58.440;15.470;2022-08-01T13:38:38;3.10;;;2.80;;
13419;SDS011;6781;58.440;15.470;2022-08-01T13:41:22;4.38;;;2.83;;
13419;SDS011;6781;58.440;15.470;2022-08-01T13:43:49;3.17;;;2.90;;
13419;SDS011;6781;58.440;15.470;2022-08-01T13:46:16;2.80;;;2.65;;
13419;SDS011;6781;58.440;15.470;2022-08-01T13:48:43;3.28;;;2.47;;
13419;SDS011;6781;58.440;15.470;2022-08-01T13:51:12;2.50;;;2.30;;
13419;SDS011;6781;58.440;15.470;2022-08-01T13:53:39;3.90;;;2.72;;
13419;SDS011;6781;58.440;15.470;2022-08-01T13:56:06;2.75;;;2.53;;
13419;SDS011;6781;58.440;15.470;2022-08-01T13:58:33;2.85;;;2.60;;
13419;SDS011;6781;58.440;15.470;2022-08-01T14:01:00;4.18;;;2.97;;
13419;SDS011;6781;58.440;15.470;2022-08-01T14:03:27;4.30;;;2.67;;
13419;SDS011;6781;58.440;15.470;2022-08-01T14:05:53;4.85;;;2.30;;
13419;SDS011;6781;58.440;15.470;2022-08-01T14:08:22;3.15;;;2.85;;
13419;SDS011;6781;58.440;15.470;2022-08-01T14:10:48;5.20;;;2.88;;
13419;SDS011;6781;58.440;15.470;2022-08-01T14:13:20;3.15;;;2.85;;
13419;SDS011;6781;58.440;15.470;2022-08-01T14:15:47;3.10;;;2.90;;
13419;SDS011;6781;58.440;15.470;2022-08-01T14:18:15;2.92;;;2.72;;
13419;SDS011;6781;58.440;15.470;2022-08-01T14:20:42;3.20;;;3.00;;
13419;SDS011;6781;58.440;15.470;2022-08-01T14:23:09;4.30;;;2.90;;
13419;SDS011;6781;58.440;15.470;2022-08-01T14:25:38;3.13;;;2.83;;
13419;SDS011;6781;58.440;15.470;2022-08-01T14:28:06;2.75;;;2.55;;
13419;SDS011;6781;58.440;15.470;2022-08-01T14:30:33;3.17;;;2.30;;
13419;SDS011;6781;58.440;15.470;2022-08-01T14:33:00;2.67;;;2.20;;
13419;SDS011;6781;58.440;15.470;2022-08-01T14:35:27;2.42;;;2.20;;
13419;SDS011;6781;58.440;15.470;2022-08-01T14:37:53;1.90;;;1.80;;
13419;SDS011;6781;58.440;15.470;2022-08-01T14:40:20;2.60;;;1.77;;
13419;SDS011;6781;58.440;15.470;2022-08-01T14:42:49;2.28;;;2.10;;
13419;SDS011;6781;58.440;15.470;2022-08-01T14:45:16;3.58;;;2.10;;
13419;SDS011;6781;58.440;15.470;2022-08-01T14:47:43;2.13;;;2.03;;
13419;SDS011;6781;58.440;15.470;2022-08-01T14:50:11;2.15;;;2.00;;
13419;SDS011;6781;58.440;15.470;2022-08-01T14:52:39;2.17;;;2.03;;
13419;SDS011;6781;58.440;15.470;2022-08-01T14:55:08;2.28;;;2.08;;
13419;SDS011;6781;58.440;15.470;2022-08-01T14:57:36;2.20;;;2.10;;
13419;SDS011;6781;58.440;15.470;2022-08-01T15:00:07;2.10;;;1.90;;
13419;SDS011;6781;58.440;15.470;2022-08-01T15:02:36;1.95;;;1.85;;
13419;SDS011;6781;58.440;15.470;2022-08-01T15:05:03;2.67;;;1.95;;
13419;SDS011;6781;58.440;15.470;2022-08-01T15:07:30;4.07;;;2.33;;
13419;SDS011;6781;58.440;15.470;2022-08-01T15:09:57;2.25;;;2.10;;
13419;SDS011;6781;58.440;15.470;2022-08-01T15:12:24;2.40;;;2.20;;
13419;SDS011;6781;58.440;15.470;2022-08-01T15:14:51;3.08;;;2.58;;